Latest Weather Observations for Warburton

IDW60801

Issued at 6:33 pm WST Friday 30 January 2015 (issued every 30 minutes, with the page automatically refreshed every 10 minutes)

About weather observations | Map of weather stations | Latest weather observations for WA | Other Formats
Station Details ID: 013011 Name: WARBURTON AIRFIELD Lat: -26.13 Lon: 126.58 Height: 459.0 m
Data from the previous 72 hours. | See also: Recent months at Warburton
Date/Time
WST
Temp
°C
App
Temp
°C
Dew
Point
Rel
Hum
%
Delta-T
°C
Wind Press
QNH
hPa
Press
MSL
hPa
Rain
since 9 am
mm
Dir
 
Spd
km/h
Gust
km/h
Spd
kts
Gust
kts
30/06:30pm 33.4 31.8 10.1 24 13.7 S 9 11 5 6 1009.0 - 0.0
30/06:00pm 33.6 30.7 9.6 23 14.0 S 15 19 8 10 1008.7 1005.0 0.0
30/05:30pm 34.0 31.6 9.9 23 14.1 S 13 19 7 10 1008.6 - 0.0
30/05:00pm 34.0 33.6 9.9 23 14.1 NE 2 7 1 4 1008.6 - 0.0
30/04:30pm 34.6 32.5 9.8 22 14.5 SSW 11 17 6 9 1008.5 - 0.0
30/04:00pm 34.6 32.5 9.8 22 14.5 WSW 11 19 6 10 1008.4 - 0.0
30/03:30pm 34.4 30.9 10.3 23 14.2 WSW 19 24 10 13 1008.5 - 0.0
30/03:00pm 34.5 31.1 10.4 23 14.3 SSW 19 24 10 13 1008.8 1005.1 0.0
30/02:30pm 35.0 33.2 7.9 19 15.5 W 7 13 4 7 1009.0 - 0.0
30/02:00pm 34.8 32.2 7.8 19 15.4 N 11 17 6 9 1009.3 - 0.0
30/01:30pm 34.2 31.2 9.4 22 14.4 WNW 15 39 8 21 1009.5 - 0.0
30/01:00pm 34.9 31.0 8.6 20 15.2 N 19 28 10 15 1010.0 - 0.0
30/12:30pm 35.4 33.7 9.7 21 15.1 NNE 9 17 5 9 1010.0 - 0.0
30/12:00pm 35.9 34.5 9.4 20 15.6 NE 7 15 4 8 1010.4 1006.7 0.0
30/11:30am 36.0 32.3 10.2 21 15.3 NW 20 28 11 15 1010.9 - 0.0
30/11:00am 35.6 33.2 9.9 21 15.2 NNW 13 26 7 14 1011.3 - 0.0
30/10:30am 33.4 30.2 11.9 27 12.9 N 20 30 11 16 1011.8 - 0.0
30/10:00am 33.5 30.5 12.5 28 12.8 N 20 32 11 17 1011.9 - 0.0
30/09:30am 33.1 29.6 12.1 27 12.7 N 22 32 12 17 1011.9 - 0.0
30/09:00am 32.2 28.9 12.9 31 11.8 N 22 30 12 16 1011.7 1008.1 0.0
30/08:30am 30.9 28.3 13.2 34 10.8 N 19 24 10 13 1011.7 - 0.0
30/08:00am 29.9 26.9 11.9 33 10.7 NNE 19 24 10 13 1011.7 - 0.0
30/07:30am 29.0 26.3 10.2 31 10.8 NNE 15 22 8 12 1011.5 - 0.0
30/07:00am 27.6 27.5 9.4 32 10.3 CALM 0 9 0 5 1011.1 - 0.0
30/06:30am 26.7 27.1 11.2 38 9.0 CALM 0 0 0 0 1011.1 - 0.0
30/06:00am 26.7 27.0 10.8 37 9.2 CALM 0 0 0 0 1010.9 1007.2 0.0
30/05:30am 27.2 26.6 7.6 29 10.7 CALM 0 0 0 0 1010.4 - 0.0
30/05:00am 27.5 24.1 1.8 19 12.7 E 9 15 5 8 1009.8 - 0.0
30/04:30am 25.8 27.5 15.2 52 6.5 CALM 0 0 0 0 1009.4 - 0.0
30/04:00am 26.5 26.9 12.5 41 8.3 ESE 2 7 1 4 1009.3 - 0.0
30/03:30am 25.6 26.5 15.0 52 6.5 ENE 4 7 2 4 1009.1 - 0.0
30/03:00am 26.0 26.3 14.5 49 7.0 ESE 6 7 3 4 1008.7 1005.0 0.0
30/02:30am 26.2 26.2 14.3 48 7.2 SSE 7 9 4 5 1008.8 - 0.0
30/02:00am 26.3 26.8 15.0 49 6.9 SSW 6 7 3 4 1008.9 - 0.0
30/01:30am 26.5 27.8 15.2 49 7.0 WSW 2 6 1 3 1009.2 - 0.0
30/01:00am 26.9 26.8 15.0 48 7.3 W 9 11 5 6 1009.6 - 0.0
30/12:30am 27.3 26.8 15.0 47 7.6 W 11 17 6 9 1009.7 - 0.0
30/12:00am 27.8 28.0 14.1 43 8.4 W 6 7 3 4 1010.0 1006.3 0.0
 
Date/Time
WST
Temp
°C
App
Temp
°C
Dew
Point
Rel
Hum
%
Delta-T
°C
Wind Press
QNH
hPa
Press
MSL
hPa
Rain
since 9 am
mm
Dir
 
Spd
km/h
Gust
km/h
Spd
kts
Gust
kts
29/11:30pm 28.0 28.2 14.3 43 8.4 SW 6 7 3 4 1010.0 - 0.0
29/11:00pm 28.3 27.8 13.8 41 8.8 S 9 13 5 7 1010.0 - 0.0
29/10:30pm 28.6 27.7 13.7 40 9.1 S 11 13 6 7 1010.2 - 0.0
29/10:00pm 28.6 28.6 14.1 41 8.9 S 7 17 4 9 1010.7 - 0.0
29/09:30pm 29.0 27.9 14.4 41 9.0 SW 13 24 7 13 1010.7 - 0.0
29/09:00pm 29.3 27.6 14.7 41 9.0 W 17 22 9 12 1010.5 1006.8 0.0
29/08:30pm 29.1 27.3 15.6 44 8.5 W 19 26 10 14 1010.3 - 0.0
29/08:00pm 29.3 27.7 16.5 46 8.1 W 20 32 11 17 1010.1 - 0.0
29/07:30pm 30.1 27.8 15.8 42 9.0 WNW 22 32 12 17 1009.6 - 0.0
29/07:00pm 30.7 26.9 14.8 38 9.9 WNW 28 35 15 19 1009.2 - 0.0
29/06:30pm 31.6 29.1 15.1 36 10.4 WNW 22 35 12 19 1008.9 - 0.0
29/06:00pm 35.9 32.0 0.9 11 18.0 E 11 17 6 9 1008.0 1004.3 0.0
29/05:30pm 36.1 32.9 1.0 11 18.1 ENE 7 11 4 6 1007.5 - 0.0
29/05:00pm 36.5 33.0 1.3 11 18.3 NE 9 15 5 8 1007.3 - 0.0
29/04:30pm 36.7 32.1 1.5 11 18.4 NNE 15 32 8 17 1007.1 - 0.0
29/04:00pm 36.8 33.3 1.5 11 18.4 NE 9 19 5 10 1007.0 - 0.0
29/03:30pm 37.5 33.8 2.1 11 18.7 ESE 11 19 6 10 1007.3 - 0.0
29/03:00pm 38.0 33.9 2.4 11 19.0 NE 13 26 7 14 1007.8 1004.1 0.0
29/02:30pm 37.9 34.6 2.4 11 18.9 NE 9 24 5 13 1008.1 - 0.0
29/02:00pm 37.2 32.5 3.1 12 18.3 NW 17 24 9 13 1008.5 - 0.0
29/01:30pm 36.8 32.2 3.9 13 17.8 SSE 17 28 9 15 1008.9 - 0.0
29/01:00pm 38.1 33.7 4.9 13 18.4 ENE 17 33 9 18 1009.3 - 0.0
29/12:30pm 37.2 32.3 4.2 13 18.0 E 19 26 10 14 1009.6 - 0.0
29/12:00pm 35.7 33.1 6.0 16 16.5 N 9 24 5 13 1010.2 1006.5 0.0
29/11:30am 36.3 32.4 5.5 15 17.0 NE 15 33 8 18 1010.5 - 0.0
29/11:00am 35.4 30.8 6.6 17 16.1 N 20 33 11 18 1010.7 - 0.0
29/10:30am 35.1 31.2 7.2 18 15.8 N 17 35 9 19 1011.2 - 0.0
29/10:00am 34.3 29.5 7.4 19 15.2 NNE 22 37 12 20 1011.6 - 0.0
29/09:30am 33.6 30.3 10.9 25 13.5 NNE 19 30 10 16 1011.8 - 0.0
29/09:00am 32.7 28.5 8.2 22 13.9 N 20 28 11 15 1011.9 1008.3 0.0
29/08:30am 32.2 26.1 4.9 18 14.7 NE 26 35 14 19 1011.9 - 0.0
29/08:00am 31.5 25.5 0.8 14 15.3 NE 22 35 12 19 1012.1 - 0.0
29/07:30am 30.1 23.9 -0.3 14 14.8 ENE 22 35 12 19 1012.0 - 0.0
29/07:00am 28.8 22.6 -0.4 15 14.0 ENE 22 32 12 17 1011.8 - 0.0
29/06:30am 27.6 21.4 -0.5 16 13.4 ENE 22 30 12 16 1011.5 - 0.0
29/06:00am 26.6 20.9 -0.4 17 12.8 E 19 28 10 15 1011.2 1007.6 0.0
29/05:30am 25.7 20.0 -0.4 18 12.3 E 19 26 10 14 1010.7 - 0.0
29/05:00am 26.1 20.4 -0.8 17 12.6 E 19 26 10 14 1010.3 - 0.0
29/04:30am 26.5 20.5 -1.3 16 12.9 E 20 28 11 15 1009.8 - 0.0
29/04:00am 26.8 21.4 -1.1 16 13.1 E 17 26 9 14 1009.5 - 0.0
29/03:30am 27.0 21.7 -0.9 16 13.1 E 17 24 9 13 1009.4 - 0.0
29/03:00am 27.1 22.6 0.0 17 13.0 E 13 17 7 9 1009.5 1005.9 0.0
29/02:30am 27.4 22.5 -0.6 16 13.3 E 15 20 8 11 1009.5 - 0.0
29/02:00am 27.9 22.9 -1.1 15 13.7 E 15 22 8 12 1009.3 - 0.0
29/01:30am 28.3 23.0 -0.8 15 13.8 E 17 24 9 13 1009.3 - 0.0
29/01:00am 28.8 23.1 -0.4 15 14.0 E 19 26 10 14 1009.4 - 0.0
29/12:30am 29.3 23.5 0.0 15 14.2 E 20 32 11 17 1009.3 - 0.0
29/12:00am 29.7 24.1 1.2 16 14.2 E 20 30 11 16 1009.4 1005.8 0.0
 
Date/Time
WST
Temp
°C
App
Temp
°C
Dew
Point
Rel
Hum
%
Delta-T
°C
Wind Press
QNH
hPa
Press
MSL
hPa
Rain
since 9 am
mm
Dir
 
Spd
km/h
Gust
km/h
Spd
kts
Gust
kts
28/11:30pm 30.4 23.6 0.9 15 14.7 E 26 35 14 19 1009.3 - 0.0
28/11:00pm 30.9 24.3 2.2 16 14.6 E 26 33 14 18 1009.6 - 0.0
28/10:30pm 31.4 24.7 3.4 17 14.6 E 28 35 15 19 1009.5 - 0.0
28/10:00pm 32.1 25.5 4.0 17 14.9 E 28 39 15 21 1009.5 - 0.0
28/09:30pm 32.9 27.4 3.8 16 15.4 ESE 22 30 12 16 1009.5 - 0.0
28/09:00pm 33.3 28.4 5.0 17 15.3 ESE 20 32 11 17 1009.3 1005.7 0.0
28/08:30pm 33.3 30.0 6.6 19 14.8 ESE 13 17 7 9 1009.1 - 0.0
28/08:00pm 33.6 29.8 6.0 18 15.2 E 15 20 8 11 1008.9 - 0.0
28/07:30pm 33.8 30.1 6.2 18 15.3 E 15 20 8 11 1008.6 - 0.0
28/07:00pm 33.8 29.3 6.2 18 15.3 E 19 30 10 16 1008.4 - 0.0
28/06:30pm 34.3 29.9 6.6 18 15.4 E 19 26 10 14 1008.0 - 0.0
28/06:00pm 34.8 30.5 7.0 18 15.7 ESE 19 30 10 16 1007.8 1004.1 0.0
28/05:30pm 34.9 30.2 6.2 17 15.9 ESE 20 28 11 15 1007.4 - 0.0
28/05:00pm 35.4 31.4 6.6 17 16.1 E 17 26 9 14 1007.2 - 0.0
28/04:30pm 35.7 32.5 6.9 17 16.2 E 13 19 7 10 1007.1 - 0.0
28/04:00pm 35.8 34.0 7.0 17 16.3 NNW 6 11 3 6 1007.0 - 0.0
28/03:30pm 36.3 33.2 7.4 17 16.5 NNE 13 28 7 15 1007.2 - 0.0
28/03:00pm 36.6 32.4 7.6 17 16.6 E 19 32 10 17 1007.7 1004.0 0.0
28/02:30pm 35.7 31.4 7.7 18 16.0 NE 20 32 11 17 1008.1 - 0.0
28/02:00pm 36.1 32.6 7.2 17 16.4 SE 15 24 8 13 1008.2 - 0.0
28/01:30pm 36.3 33.4 8.2 18 16.2 E 13 26 7 14 1008.5 - 0.0
28/01:00pm 35.4 31.4 8.3 19 15.6 NE 19 32 10 17 1008.8 - 0.0
28/12:30pm 35.0 32.4 9.4 21 14.9 N 13 24 7 13 1009.3 - 0.0
28/12:00pm 35.2 32.5 10.3 22 14.8 E 15 26 8 14 1009.7 1006.1 0.0
28/11:30am 34.3 30.8 10.8 24 14.0 NNE 20 32 11 17 1010.1 - 0.0
28/11:00am 33.0 30.2 11.5 27 12.9 N 17 32 9 17 1010.6 - 0.0
28/10:30am 33.7 31.5 13.2 29 12.6 NE 17 24 9 13 1011.0 - 0.0
28/10:00am 32.3 29.3 12.5 30 12.0 NE 20 32 11 17 1011.3 - 0.0
28/09:30am 31.7 29.0 13.5 33 11.2 ENE 20 32 11 17 1011.5 - 0.0
28/09:00am 31.0 28.2 13.3 34 10.8 NE 20 32 11 17 1011.7 1008.1 15.4
28/08:30am 30.3 28.4 13.1 34 10.4 E 15 22 8 12 1011.8 - 15.4
28/08:00am 29.6 27.0 10.7 31 11.0 ESE 15 20 8 11 1012.1 - 15.4
28/07:30am 28.2 24.0 7.4 27 11.4 ESE 19 24 10 13 1012.1 - 15.4
28/07:00am 27.2 23.2 6.6 27 11.1 ESE 17 24 9 13 1012.1 - 15.4
28/06:30am 25.9 23.1 8.4 33 9.6 SE 13 15 7 8 1011.9 - 15.4
28/06:00am 24.9 23.2 10.0 39 8.4 SSE 9 13 5 7 1011.4 1007.8 15.4
28/05:30am 23.6 23.2 14.0 55 5.7 SE 9 11 5 6 1011.0 - 15.4
28/05:00am 22.8 25.7 20.7 88 1.4 SSE 6 9 3 5 1010.6 - 15.4
28/04:30am 23.2 27.1 22.9 98 0.2 S 7 9 4 5 1010.2 - 15.4
28/04:00am 23.7 28.9 22.9 95 0.5 CALM 0 0 0 0 1010.1 - 15.4
28/03:30am 23.9 28.6 22.0 89 1.3 CALM 0 0 0 0 1010.3 - 15.4
28/03:00am 23.9 27.2 21.4 86 1.7 E 6 7 3 4 1010.0 1006.3 15.4
28/02:30am 24.2 27.3 21.1 83 2.1 ENE 6 7 3 4 1010.1 - 15.4
28/02:00am 24.5 27.0 20.2 77 2.8 E 7 7 4 4 1009.8 - 15.4
28/01:30am 24.7 27.3 20.0 75 3.1 NE 6 7 3 4 1010.2 - 15.4
28/01:00am 25.3 27.4 19.4 70 3.9 NE 7 9 4 5 1010.4 - 15.4
28/12:30am 25.0 27.6 20.0 74 3.3 E 6 7 3 4 1010.4 - 15.4
28/12:00am 25.7 27.8 19.3 67 4.2 NNE 7 9 4 5 1010.6 1006.9 15.4
 
Date/Time
WST
Temp
°C
App
Temp
°C
Dew
Point
Rel
Hum
%
Delta-T
°C
Wind Press
QNH
hPa
Press
MSL
hPa
Rain
since 9 am
mm
Dir
 
Spd
km/h
Gust
km/h
Spd
kts
Gust
kts
27/11:30pm 26.4 27.6 19.8 67 4.4 N 13 15 7 8 1010.9 - 15.4
27/11:00pm 26.5 28.8 21.3 73 3.5 N 11 17 6 9 1011.1 - 15.4
27/10:30pm 26.9 30.5 21.2 71 3.8 S 4 9 2 5 1011.0 - 15.4
27/10:00pm 27.0 30.7 19.9 65 4.7 CALM 0 6 0 3 1010.6 - 15.4
27/09:30pm 26.9 29.2 20.7 69 4.2 S 9 11 5 6 1010.2 - 15.4
27/09:00pm 27.2 30.8 20.5 67 4.5 NE 2 6 1 3 1010.1 1006.4 15.4
27/08:30pm 27.6 29.6 19.1 59 5.6 NNE 7 9 4 5 1009.6 - 15.4
27/08:00pm 28.2 29.6 18.6 56 6.3 NE 9 15 5 8 1009.3 - 15.4
27/07:30pm 27.8 31.3 21.8 70 4.1 N 6 7 3 4 1009.1 - 15.4
27/07:00pm 28.7 30.5 18.8 55 6.5 NE 7 9 4 5 1008.9 - 15.4

Other Formats:

Comma delimited format used in spreadsheet applications
http://www.bom.gov.au/fwo/IDW60801/IDW60801.94457.axf

JavaScript Object Notation format (JSON) in row-major order
http://www.bom.gov.au/fwo/IDW60801/IDW60801.94457.json